createdAt,value
2022-10-15T00:01:21.544Z,36.10
2022-10-15T00:03:48.697Z,38.40
2022-10-15T00:06:21.051Z,35.73
2022-10-15T00:08:48.935Z,37.63
2022-10-15T00:11:18.854Z,35.83
2022-10-15T00:13:45.861Z,36.10
2022-10-15T00:16:16.851Z,33.53
2022-10-15T00:18:44.097Z,30.93
2022-10-15T00:21:13.194Z,32.73
2022-10-15T00:23:40.212Z,31.37
2022-10-15T00:26:10.179Z,32.77
2022-10-15T00:28:37.635Z,31.37
2022-10-15T00:31:07.504Z,31.53
2022-10-15T00:33:34.941Z,31.27
2022-10-15T00:36:09.644Z,31.83
2022-10-15T00:38:37.180Z,30.57
2022-10-15T00:41:06.884Z,31.30
2022-10-15T00:43:49.163Z,27.73
2022-10-15T00:46:22.687Z,28.50
2022-10-15T00:48:57.177Z,27.80
2022-10-15T00:51:31.538Z,25.97
2022-10-15T00:53:59.078Z,26.73
2022-10-15T00:56:31.650Z,26.60
2022-10-15T00:58:59.186Z,26.93
2022-10-15T01:01:26.516Z,27.20
2022-10-15T01:03:55.869Z,26.80
2022-10-15T01:06:23.902Z,26.13
2022-10-15T01:08:51.879Z,25.57
2022-10-15T01:11:40.873Z,24.47
2022-10-15T01:14:13.372Z,26.00
2022-10-15T01:17:00.682Z,25.87
2022-10-15T01:20:05.396Z,25.23
2022-10-15T01:22:38.304Z,25.27
2022-10-15T01:25:43.862Z,24.83
2022-10-15T01:29:03.297Z,26.33
2022-10-15T01:31:51.636Z,23.63
2022-10-15T01:34:53.117Z,25.90
2022-10-15T01:37:44.567Z,25.77
2022-10-15T01:40:20.061Z,26.27
2022-10-15T01:42:57.119Z,25.43
2022-10-15T01:45:43.964Z,26.10
2022-10-15T01:48:33.982Z,24.70
2022-10-15T01:51:03.978Z,24.33
2022-10-15T01:53:34.432Z,24.63
2022-10-15T01:56:07.672Z,25.23
2022-10-15T01:58:41.062Z,23.93
2022-10-15T02:01:08.401Z,23.07
2022-10-15T02:03:50.975Z,23.90
2022-10-15T02:06:20.963Z,24.53
2022-10-15T02:08:53.744Z,23.90
2022-10-15T02:11:20.924Z,24.20
2022-10-15T02:14:16.341Z,23.57
2022-10-15T02:17:03.151Z,22.70
2022-10-15T02:19:39.824Z,23.70
2022-10-15T02:22:12.416Z,24.20
2022-10-15T02:25:02.378Z,23.87
2022-10-15T02:27:32.888Z,24.17
2022-10-15T02:30:04.669Z,24.60
2022-10-15T02:32:35.563Z,23.57
2022-10-15T02:35:03.496Z,25.37
2022-10-15T02:37:32.262Z,24.70
2022-10-15T02:39:59.237Z,25.60
2022-10-15T02:42:27.064Z,23.97
2022-10-15T02:44:54.103Z,24.13
2022-10-15T02:47:21.387Z,23.97
2022-10-15T02:49:48.359Z,23.47
2022-10-15T02:52:15.670Z,23.67
2022-10-15T02:54:42.727Z,23.97
2022-10-15T02:57:09.727Z,23.37
2022-10-15T02:59:36.840Z,22.03
2022-10-15T03:02:04.024Z,22.43
2022-10-15T03:04:32.199Z,24.07
2022-10-15T03:06:59.184Z,22.77
2022-10-15T03:13:08.119Z,23.80
2022-10-15T03:15:43.138Z,22.83
2022-10-15T03:18:10.111Z,23.60
2022-10-15T03:20:37.802Z,25.47
2022-10-15T03:23:04.796Z,24.50
2022-10-15T03:25:32.768Z,24.50
2022-10-15T03:28:02.767Z,23.37
2022-10-15T03:30:36.759Z,24.17
2022-10-15T03:33:04.662Z,24.27
2022-10-15T03:35:32.148Z,25.00
2022-10-15T03:37:59.456Z,24.20
2022-10-15T03:40:26.879Z,24.87
2022-10-15T03:42:57.946Z,25.03
2022-10-15T03:45:26.005Z,24.50
2022-10-15T03:48:09.947Z,25.23
2022-10-15T03:50:37.085Z,24.53
2022-10-15T03:53:05.819Z,25.50
2022-10-15T03:55:34.019Z,24.97
2022-10-15T03:58:01.619Z,26.33
2022-10-15T04:00:30.011Z,24.73
2022-10-15T04:03:00.342Z,25.17
2022-10-15T04:05:29.039Z,27.70
2022-10-15T04:08:02.565Z,27.20
2022-10-15T04:10:32.533Z,25.07
2022-10-15T04:12:59.789Z,27.10
2022-10-15T04:15:27.902Z,29.33
2022-10-15T04:17:59.874Z,28.17
2022-10-15T04:20:28.542Z,26.03
2022-10-15T04:23:06.904Z,27.73
2022-10-15T04:25:37.373Z,29.43
2022-10-15T04:28:04.699Z,27.73
2022-10-15T04:30:34.372Z,28.47
2022-10-15T04:33:04.707Z,27.37
2022-10-15T04:35:32.314Z,28.70
2022-10-15T04:38:10.528Z,28.80
2022-10-15T04:41:06.877Z,28.63
2022-10-15T04:43:54.246Z,28.10
2022-10-15T04:46:22.712Z,26.10
2022-10-15T04:48:51.014Z,28.13
2022-10-15T04:51:21.797Z,27.97
2022-10-15T04:54:09.009Z,28.47
2022-10-15T04:56:41.455Z,27.37
2022-10-15T04:59:08.829Z,28.30
2022-10-15T05:01:55.780Z,27.30
2022-10-15T05:04:22.850Z,29.10
2022-10-15T05:06:49.916Z,30.13
2022-10-15T05:09:20.100Z,28.37
2022-10-15T05:11:51.504Z,29.70
2022-10-15T05:14:18.670Z,32.43
2022-10-15T05:17:01.927Z,30.87
2022-10-15T05:19:29.058Z,30.97
2022-10-15T05:21:56.265Z,32.27
2022-10-15T05:24:25.317Z,30.20
2022-10-15T05:27:05.337Z,30.27
2022-10-15T05:29:33.840Z,31.17
2022-10-15T05:32:00.901Z,29.43
2022-10-15T05:34:30.637Z,31.57
2022-10-15T05:37:04.919Z,33.43
2022-10-15T05:39:32.264Z,33.87
2022-10-15T05:41:59.954Z,32.80
2022-10-15T05:44:37.945Z,33.27
2022-10-15T05:47:05.159Z,32.13
2022-10-15T05:49:33.459Z,33.70
2022-10-15T05:52:12.861Z,34.60
2022-10-15T05:55:06.032Z,34.80
2022-10-15T05:57:33.000Z,32.43
2022-10-15T06:00:05.935Z,31.97
2022-10-15T06:02:39.258Z,33.27
2022-10-15T06:05:06.802Z,36.80
2022-10-15T06:07:33.913Z,35.27
2022-10-15T06:10:05.641Z,34.10
2022-10-15T06:12:34.444Z,35.60
2022-10-15T06:15:01.516Z,34.40
2022-10-15T06:17:28.468Z,36.07
2022-10-15T06:19:55.443Z,33.73
2022-10-15T06:22:22.746Z,34.50
2022-10-15T06:24:49.868Z,33.47
2022-10-15T06:27:17.021Z,31.57
2022-10-15T06:29:44.056Z,34.40
2022-10-15T06:32:11.873Z,33.23
2022-10-15T06:34:43.608Z,33.47
2022-10-15T06:37:10.741Z,33.63
2022-10-15T06:39:37.883Z,33.70
2022-10-15T06:42:04.916Z,32.90
2022-10-15T06:44:41.216Z,32.90
2022-10-15T06:47:09.060Z,32.20
2022-10-15T06:49:35.993Z,32.63
2022-10-15T06:52:03.924Z,34.33
2022-10-15T06:54:31.094Z,33.50
2022-10-15T06:56:58.189Z,33.47
2022-10-15T06:59:25.061Z,32.60
2022-10-15T07:01:54.501Z,34.70
2022-10-15T07:04:23.759Z,32.70
2022-10-15T07:06:50.802Z,33.33
2022-10-15T07:09:20.614Z,33.43
2022-10-15T07:11:47.597Z,33.97
2022-10-15T07:14:14.712Z,34.47
2022-10-15T07:16:41.704Z,33.60
2022-10-15T07:19:08.677Z,35.33
2022-10-15T07:21:35.717Z,35.70
2022-10-15T07:24:02.716Z,35.30
2022-10-15T07:26:31.218Z,32.33
2022-10-15T07:28:59.508Z,32.50
2022-10-15T07:31:26.876Z,32.27
2022-10-15T07:33:53.824Z,31.37
2022-10-15T07:36:20.924Z,31.27
2022-10-15T07:38:47.904Z,30.40
2022-10-15T07:41:14.956Z,28.90
2022-10-15T07:43:44.549Z,29.73
2022-10-15T07:46:11.877Z,28.90
2022-10-15T07:48:38.954Z,27.93
2022-10-15T07:51:07.401Z,26.77
2022-10-15T07:53:34.534Z,26.13
2022-10-15T07:56:12.324Z,25.60
2022-10-15T07:58:39.845Z,25.30
2022-10-15T08:01:08.506Z,27.07
2022-10-15T08:03:36.262Z,27.43
2022-10-15T08:06:07.957Z,28.07
2022-10-15T08:08:35.934Z,27.47
2022-10-15T08:11:11.090Z,28.63
2022-10-15T08:13:42.339Z,27.43
2022-10-15T08:16:10.979Z,28.73
2022-10-15T08:18:38.730Z,29.83
2022-10-15T08:21:07.893Z,28.27
2022-10-15T08:23:35.645Z,28.67
2022-10-15T08:26:03.052Z,30.07
2022-10-15T08:28:31.396Z,28.70
2022-10-15T08:31:04.285Z,29.30
2022-10-15T08:33:37.196Z,29.83
2022-10-15T08:36:07.457Z,32.03
2022-10-15T08:38:35.551Z,30.17
2022-10-15T08:41:05.506Z,30.83
2022-10-15T08:43:42.774Z,29.23
2022-10-15T08:46:38.885Z,31.17
2022-10-15T08:49:14.287Z,31.67
2022-10-15T08:51:48.299Z,30.77
2022-10-15T08:54:18.208Z,31.47
2022-10-15T08:56:50.956Z,29.93
2022-10-15T08:59:42.917Z,31.27
2022-10-15T09:02:15.762Z,31.40
2022-10-15T09:04:59.773Z,34.33
2022-10-15T09:07:31.139Z,34.47
2022-10-15T09:10:25.410Z,35.47
2022-10-15T09:13:10.380Z,34.43
2022-10-15T09:15:50.701Z,33.53
2022-10-15T09:18:22.871Z,33.07
2022-10-15T09:20:50.760Z,35.20
2022-10-15T09:23:20.865Z,36.40
2022-10-15T09:26:09.843Z,35.07
2022-10-15T09:28:50.506Z,34.10
2022-10-15T09:31:28.022Z,33.13
2022-10-15T09:34:03.937Z,33.17
2022-10-15T09:36:51.423Z,33.40
2022-10-15T09:39:46.039Z,34.70
2022-10-15T09:42:39.036Z,35.50
2022-10-15T09:45:11.872Z,33.23
2022-10-15T09:47:41.159Z,34.47
2022-10-15T09:50:10.538Z,35.63
2022-10-15T09:52:59.475Z,33.23
2022-10-15T09:55:32.011Z,34.67
2022-10-15T09:58:06.356Z,32.73
2022-10-15T10:00:52.362Z,32.77
2022-10-15T10:03:19.761Z,30.97
2022-10-15T10:05:47.497Z,32.50
2022-10-15T10:08:25.644Z,35.50
2022-10-15T10:10:57.752Z,34.70
2022-10-15T10:13:26.233Z,34.57
2022-10-15T10:15:58.421Z,36.90
2022-10-15T10:18:26.802Z,34.57
2022-10-15T10:21:03.712Z,32.40
2022-10-15T10:23:36.389Z,32.67
2022-10-15T10:26:09.505Z,32.67
2022-10-15T10:29:04.684Z,29.93
2022-10-15T10:31:42.743Z,29.80
2022-10-15T10:34:31.763Z,29.70
2022-10-15T10:37:03.953Z,27.57
2022-10-15T10:39:36.625Z,32.77
2022-10-15T10:42:22.815Z,33.07
2022-10-15T10:44:49.819Z,33.70
2022-10-15T10:47:26.143Z,31.93
2022-10-15T10:49:58.930Z,31.27
2022-10-15T10:52:28.899Z,30.40
2022-10-15T10:55:19.277Z,31.97
2022-10-15T10:57:57.749Z,32.10
2022-10-15T11:00:41.168Z,30.37
2022-10-15T11:03:27.759Z,32.47
2022-10-15T11:06:23.295Z,31.47
2022-10-15T11:09:03.082Z,30.17
2022-10-15T11:11:34.295Z,31.07
2022-10-15T11:14:10.195Z,28.83
2022-10-15T11:16:54.868Z,29.80
2022-10-15T11:20:24.912Z,29.57
2022-10-15T11:23:12.156Z,28.97
2022-10-15T11:26:20.462Z,29.17
2022-10-15T11:29:11.427Z,29.50
2022-10-15T11:32:14.634Z,28.83
2022-10-15T11:35:17.147Z,27.63
2022-10-15T11:38:14.167Z,26.73
2022-10-15T11:41:11.604Z,25.73
2022-10-15T11:44:04.706Z,27.93
2022-10-15T11:46:55.025Z,27.17
2022-10-15T11:49:42.128Z,26.37
2022-10-15T11:52:30.994Z,25.07
2022-10-15T11:55:19.382Z,26.37
2022-10-15T11:57:51.190Z,26.27
2022-10-15T12:00:41.606Z,26.87
2022-10-15T12:03:17.127Z,26.87
2022-10-15T12:05:54.592Z,26.17
2022-10-15T12:08:25.089Z,25.77
2022-10-15T12:11:04.276Z,25.67
2022-10-15T12:13:42.342Z,23.90
2022-10-15T12:16:35.475Z,23.23
2022-10-15T12:19:22.389Z,23.30
2022-10-15T12:21:56.771Z,20.90
2022-10-15T12:24:41.611Z,21.93
2022-10-15T12:27:20.585Z,21.00
2022-10-15T12:30:13.997Z,18.90
2022-10-15T12:32:46.063Z,18.50
2022-10-15T12:35:15.882Z,19.17
2022-10-15T12:37:46.276Z,21.80
2022-10-15T12:40:39.971Z,19.63
2022-10-15T12:43:19.932Z,19.90
2022-10-15T12:46:03.185Z,18.67
2022-10-15T12:48:44.617Z,17.90
2022-10-15T12:51:23.581Z,16.87
2022-10-15T12:53:58.970Z,17.27
2022-10-15T12:56:40.252Z,18.23
2022-10-15T12:59:32.068Z,16.87
2022-10-15T13:02:02.419Z,17.83
2022-10-15T13:04:39.151Z,20.87
2022-10-15T13:07:06.381Z,18.90
2022-10-15T13:09:33.679Z,18.90
2022-10-15T13:12:02.711Z,19.43
2022-10-15T13:14:33.804Z,20.50
2022-10-15T13:17:05.287Z,17.33
2022-10-15T13:19:46.200Z,18.13
2022-10-15T13:22:29.624Z,18.43
2022-10-15T13:24:57.109Z,19.40
2022-10-15T13:27:32.016Z,18.00
2022-10-15T13:30:04.479Z,17.67
2022-10-15T13:32:36.873Z,18.70
2022-10-15T13:35:12.345Z,15.90
2022-10-15T13:37:41.059Z,15.97
2022-10-15T13:40:08.746Z,15.80
2022-10-15T13:42:35.870Z,15.40
2022-10-15T13:45:05.074Z,16.20
2022-10-15T13:47:37.728Z,16.67
2022-10-15T13:50:17.826Z,13.87
2022-10-15T13:53:10.954Z,13.93
2022-10-15T13:55:40.156Z,13.00
2022-10-15T13:58:27.679Z,13.23
2022-10-15T14:01:03.292Z,14.83
2022-10-15T14:03:32.147Z,15.70
2022-10-15T14:06:14.373Z,16.83
2022-10-15T14:08:41.364Z,13.97
2022-10-15T14:11:13.057Z,12.93
2022-10-15T14:13:46.692Z,13.23
2022-10-15T14:16:25.589Z,13.10
2022-10-15T14:19:06.644Z,12.40
2022-10-15T14:21:35.491Z,11.70
2022-10-15T14:24:16.409Z,11.50
2022-10-15T14:26:44.354Z,12.93
2022-10-15T14:29:21.181Z,11.53
2022-10-15T14:31:49.513Z,11.67
2022-10-15T14:34:34.668Z,10.67
2022-10-15T14:37:32.862Z,14.70
2022-10-15T14:40:11.700Z,13.60
2022-10-15T14:42:43.249Z,13.47
2022-10-15T14:45:27.899Z,13.80
2022-10-15T14:48:11.078Z,13.27
2022-10-15T14:50:42.763Z,12.97
2022-10-15T14:53:16.136Z,12.97
2022-10-15T14:55:51.303Z,14.57
2022-10-15T14:58:21.492Z,14.27
2022-10-15T15:00:54.951Z,12.13
2022-10-15T15:03:29.959Z,12.90
2022-10-15T15:05:58.388Z,13.43
2022-10-15T15:08:26.298Z,13.47
2022-10-15T15:10:56.544Z,13.20
2022-10-15T15:13:26.223Z,11.93
2022-10-15T15:15:53.609Z,11.47
2022-10-15T15:18:21.083Z,12.53
2022-10-15T15:20:49.789Z,11.30
2022-10-15T15:23:20.823Z,13.63
2022-10-15T15:25:48.181Z,12.87
2022-10-15T15:28:20.162Z,13.40
2022-10-15T15:30:55.116Z,13.47
2022-10-15T15:33:22.072Z,12.30
2022-10-15T15:35:51.920Z,12.50
2022-10-15T15:38:30.704Z,12.83
2022-10-15T15:41:06.011Z,11.63
2022-10-15T15:43:33.029Z,13.30
2022-10-15T15:45:59.959Z,13.40
2022-10-15T15:48:26.942Z,13.00
2022-10-15T15:50:54.617Z,13.60
2022-10-15T15:53:21.649Z,13.60
2022-10-15T15:55:48.741Z,13.43
2022-10-15T15:58:15.765Z,12.23
2022-10-15T16:00:42.747Z,12.70
2022-10-15T16:03:13.431Z,12.20
2022-10-15T16:05:41.602Z,12.00
2022-10-15T16:08:09.502Z,13.27
2022-10-15T16:10:36.501Z,11.83
2022-10-15T16:13:04.038Z,12.20
2022-10-15T16:15:31.004Z,11.00
2022-10-15T16:17:57.937Z,11.53
2022-10-15T16:20:24.941Z,11.27
2022-10-15T16:22:53.469Z,10.03
2022-10-15T16:25:22.453Z,13.03
2022-10-15T16:27:52.066Z,12.13
2022-10-15T16:30:19.487Z,13.23
2022-10-15T16:32:46.565Z,13.50
2022-10-15T16:35:13.669Z,11.80
2022-10-15T16:37:40.716Z,13.57
2022-10-15T16:40:08.437Z,13.40
2022-10-15T16:42:35.509Z,12.73
2022-10-15T16:45:02.543Z,13.13
2022-10-15T16:47:29.589Z,14.50
2022-10-15T16:49:56.654Z,13.57
2022-10-15T16:52:23.999Z,12.87
2022-10-15T16:54:51.156Z,12.57
2022-10-15T16:57:18.095Z,13.07
2022-10-15T16:59:45.077Z,12.83
2022-10-15T17:02:12.159Z,13.73
2022-10-15T17:04:39.866Z,13.47
2022-10-15T17:07:06.842Z,12.07
2022-10-15T17:09:33.905Z,11.87
2022-10-15T17:12:00.957Z,12.27
2022-10-15T17:14:28.174Z,11.83
2022-10-15T17:16:55.137Z,11.77
2022-10-15T17:19:27.854Z,13.10
2022-10-15T17:21:57.611Z,12.47
2022-10-15T17:24:24.570Z,12.60
2022-10-15T17:26:51.591Z,12.27
2022-10-15T17:29:20.864Z,12.33
2022-10-15T17:31:48.833Z,12.77
2022-10-15T17:34:16.505Z,13.10
2022-10-15T17:36:47.320Z,12.90
2022-10-15T17:39:20.379Z,13.43
2022-10-15T17:41:48.055Z,12.90
2022-10-15T17:44:15.265Z,13.40
2022-10-15T17:46:42.537Z,14.30
2022-10-15T17:49:11.104Z,13.73
2022-10-15T17:51:39.533Z,15.47
2022-10-15T17:54:06.594Z,15.97
2022-10-15T17:56:35.362Z,15.53
2022-10-15T17:59:05.209Z,17.10
2022-10-15T18:04:23.066Z,17.90
2022-10-15T18:06:50.016Z,17.90
2022-10-15T18:09:24.893Z,16.40
2022-10-15T18:11:55.657Z,18.23
2022-10-15T18:14:31.088Z,17.07
2022-10-15T18:16:58.341Z,17.30
2022-10-15T18:19:28.294Z,17.97
2022-10-15T18:21:55.686Z,18.47
2022-10-15T18:24:23.698Z,19.10
2022-10-15T18:26:51.702Z,19.17
2022-10-15T18:29:18.926Z,18.37
2022-10-15T18:31:47.176Z,20.17
2022-10-15T18:34:14.703Z,19.77
2022-10-15T18:36:43.554Z,20.33
2022-10-15T18:39:11.170Z,21.57
2022-10-15T18:41:40.081Z,21.30
2022-10-15T18:44:16.813Z,23.63
2022-10-15T18:46:45.131Z,21.30
2022-10-15T18:49:13.937Z,22.73
2022-10-15T18:51:41.322Z,22.57
2022-10-15T18:54:10.770Z,23.87
2022-10-15T18:56:37.921Z,22.53
2022-10-15T18:59:05.013Z,23.60
2022-10-15T19:01:41.766Z,24.77
2022-10-15T19:04:14.626Z,24.30
2022-10-15T19:06:44.397Z,23.87
2022-10-15T19:09:15.369Z,23.80
2022-10-15T19:11:44.440Z,24.80
2022-10-15T19:14:12.238Z,24.37
2022-10-15T19:16:39.290Z,24.40
2022-10-15T19:19:13.193Z,25.83
2022-10-15T19:21:40.237Z,25.70
2022-10-15T19:24:07.260Z,25.10
2022-10-15T19:26:34.849Z,26.23
2022-10-15T19:29:02.516Z,26.40
2022-10-15T19:31:32.439Z,26.27
2022-10-15T19:34:00.258Z,26.47
2022-10-15T19:36:34.222Z,25.67
2022-10-15T19:39:03.895Z,28.10
2022-10-15T19:41:30.868Z,27.97
2022-10-15T19:43:57.896Z,26.30
2022-10-15T19:46:24.996Z,26.67
2022-10-15T19:48:52.033Z,27.47
2022-10-15T19:51:21.625Z,26.10
2022-10-15T19:53:56.408Z,27.27
2022-10-15T19:56:23.685Z,28.73
2022-10-15T19:58:56.041Z,27.97
2022-10-15T20:01:23.178Z,27.57
2022-10-15T20:03:50.237Z,27.93
2022-10-15T20:06:17.979Z,28.57
2022-10-15T20:08:45.189Z,28.27
2022-10-15T20:11:12.646Z,28.57
2022-10-15T20:13:40.389Z,29.37
2022-10-15T20:16:10.260Z,27.97
2022-10-15T20:18:37.602Z,28.20
2022-10-15T20:21:09.305Z,27.77
2022-10-15T20:23:38.159Z,28.00
2022-10-15T20:26:07.390Z,28.80
2022-10-15T20:28:39.432Z,28.80
2022-10-15T20:31:12.229Z,27.97
2022-10-15T20:33:41.048Z,28.60
2022-10-15T20:36:12.800Z,29.53
2022-10-15T20:38:42.169Z,27.83
2022-10-15T20:41:17.175Z,26.33
2022-10-15T20:43:45.479Z,27.97
2022-10-15T20:46:19.197Z,27.60
2022-10-15T20:48:46.612Z,28.27
2022-10-15T20:51:17.523Z,29.97
2022-10-15T20:53:45.700Z,27.70
2022-10-15T20:56:12.822Z,29.57
2022-10-15T20:58:39.922Z,29.43
2022-10-15T21:01:07.869Z,30.17
2022-10-15T21:03:35.053Z,30.73
2022-10-15T21:06:02.223Z,29.53
2022-10-15T21:08:29.454Z,29.47
2022-10-15T21:11:07.554Z,29.93
2022-10-15T21:13:35.028Z,28.80
2022-10-15T21:16:05.628Z,28.20
2022-10-15T21:18:33.913Z,28.17
2022-10-15T21:21:02.730Z,27.40
2022-10-15T21:23:30.957Z,29.47
2022-10-15T21:26:03.363Z,28.93
2022-10-15T21:28:30.910Z,29.87
2022-10-15T21:30:57.895Z,29.27
2022-10-15T21:33:24.884Z,28.97
2022-10-15T21:35:51.843Z,30.70
2022-10-15T21:38:18.795Z,29.87
2022-10-15T21:40:49.588Z,29.60
2022-10-15T21:43:16.769Z,29.73
2022-10-15T21:45:43.801Z,30.33
2022-10-15T21:48:10.771Z,30.63
2022-10-15T21:50:37.760Z,30.43
2022-10-15T21:53:05.146Z,30.10
2022-10-15T21:55:32.375Z,30.93
2022-10-15T21:57:59.413Z,30.10
2022-10-15T22:00:26.595Z,29.90
2022-10-15T22:02:53.561Z,29.20
2022-10-15T22:05:20.483Z,30.90
2022-10-15T22:07:47.446Z,32.13
2022-10-15T22:10:14.477Z,31.07
2022-10-15T22:12:41.559Z,29.10
2022-10-15T22:15:08.927Z,30.87
2022-10-15T22:17:35.907Z,30.03
2022-10-15T22:20:03.000Z,30.77
2022-10-15T22:22:29.964Z,31.63
2022-10-15T22:24:59.591Z,31.90
2022-10-15T22:27:27.252Z,31.27
2022-10-15T22:29:54.213Z,31.73
2022-10-15T22:32:21.142Z,30.97
2022-10-15T22:34:48.134Z,32.20
2022-10-15T22:37:15.118Z,30.50
2022-10-15T22:39:42.060Z,31.13
2022-10-15T22:42:09.198Z,30.23
2022-10-15T22:44:36.299Z,28.63
2022-10-15T22:47:03.393Z,31.50
2022-10-15T22:49:30.392Z,31.17
2022-10-15T22:51:57.397Z,30.03
2022-10-15T22:54:24.406Z,31.03
2022-10-15T22:56:52.082Z,30.67
2022-10-15T22:59:19.326Z,30.17
2022-10-15T23:01:46.437Z,28.97
2022-10-15T23:04:15.397Z,28.47
2022-10-15T23:06:42.541Z,28.77
2022-10-15T23:09:11.305Z,29.00
2022-10-15T23:11:41.185Z,27.87
2022-10-15T23:14:12.025Z,28.27
2022-10-15T23:16:47.333Z,28.07
2022-10-15T23:19:17.542Z,27.57
2022-10-15T23:21:47.852Z,29.80
2022-10-15T23:24:15.981Z,28.67
2022-10-15T23:26:43.570Z,29.80
2022-10-15T23:29:19.078Z,29.73
2022-10-15T23:31:46.905Z,29.37
2022-10-15T23:34:17.173Z,28.10
2022-10-15T23:36:44.323Z,28.93
2022-10-15T23:39:18.026Z,29.17
2022-10-15T23:41:45.327Z,28.03
2022-10-15T23:44:12.700Z,28.13
2022-10-15T23:46:40.213Z,27.20
2022-10-15T23:49:07.363Z,28.47
2022-10-15T23:51:37.008Z,28.23
2022-10-15T23:54:11.622Z,28.40
2022-10-15T23:56:38.713Z,26.90
2022-10-15T23:59:05.716Z,27.37
